createdAt,value
2018-06-15T00:00:02.814Z,13.50
2018-06-15T00:02:32.934Z,13.60
2018-06-15T00:05:02.076Z,13.40
2018-06-15T00:07:31.186Z,13.40
2018-06-15T00:10:00.862Z,13.30
2018-06-15T00:12:29.983Z,13.30
2018-06-15T00:14:59.106Z,13.20
2018-06-15T00:17:28.179Z,13.30
2018-06-15T00:19:57.279Z,13.10
2018-06-15T00:22:26.386Z,13.00
2018-06-15T00:24:55.467Z,13.00
2018-06-15T00:27:24.579Z,13.00
2018-06-15T00:29:53.664Z,12.90
2018-06-15T00:34:51.557Z,13.00
2018-06-15T00:37:20.696Z,13.00
2018-06-15T00:39:49.782Z,13.00
2018-06-15T00:42:18.907Z,12.90
2018-06-15T00:44:47.994Z,12.70
2018-06-15T00:47:17.119Z,12.70
2018-06-15T00:49:46.220Z,12.80
2018-06-15T00:52:15.316Z,12.70
2018-06-15T00:54:44.428Z,12.60
2018-06-15T00:57:24.787Z,12.60
2018-06-15T00:59:53.896Z,12.40
2018-06-15T01:02:23.022Z,12.50
2018-06-15T01:04:52.123Z,12.50
2018-06-15T01:07:21.215Z,12.60
2018-06-15T01:09:50.312Z,12.40
2018-06-15T01:12:19.396Z,12.30
2018-06-15T01:14:48.501Z,12.30
2018-06-15T01:17:17.587Z,12.30
2018-06-15T01:19:46.759Z,12.30
2018-06-15T01:22:15.845Z,12.30
2018-06-15T01:24:44.947Z,12.40
2018-06-15T01:27:14.026Z,12.40
2018-06-15T01:29:43.138Z,12.30
2018-06-15T01:32:12.234Z,12.20
2018-06-15T01:37:10.127Z,12.10
2018-06-15T01:39:39.275Z,12.00
2018-06-15T01:42:08.559Z,11.90
2018-06-15T01:44:37.700Z,11.80
2018-06-15T01:47:06.883Z,11.90
2018-06-15T01:49:35.991Z,11.80
2018-06-15T01:52:05.097Z,11.80
2018-06-15T01:54:34.199Z,11.70
2018-06-15T01:59:31.955Z,11.80
2018-06-15T02:02:01.052Z,11.80
2018-06-15T02:04:30.144Z,11.80
2018-06-15T02:06:59.279Z,11.70
2018-06-15T02:09:28.372Z,11.60
2018-06-15T02:11:57.479Z,11.50
2018-06-15T02:14:26.575Z,11.50
2018-06-15T02:16:55.903Z,11.50
2018-06-15T02:19:24.986Z,11.40
2018-06-15T02:21:54.077Z,11.40
2018-06-15T02:24:23.181Z,11.40
2018-06-15T02:26:52.292Z,11.30
2018-06-15T02:29:22.334Z,11.30
2018-06-15T02:31:51.428Z,11.30
2018-06-15T02:34:20.534Z,11.20
2018-06-15T02:36:49.786Z,11.20
2018-06-15T02:39:18.880Z,11.40
2018-06-15T02:41:48.013Z,11.50
2018-06-15T02:44:17.082Z,11.60
2018-06-15T02:46:46.179Z,11.50
2018-06-15T02:49:15.267Z,11.40
2018-06-15T02:51:44.430Z,11.40
2018-06-15T02:54:13.516Z,11.30
2018-06-15T02:56:42.675Z,11.20
2018-06-15T02:59:11.770Z,11.10
2018-06-15T03:01:40.912Z,11.10
2018-06-15T03:04:10.014Z,11.00
2018-06-15T03:06:39.169Z,11.00
2018-06-15T03:09:08.484Z,11.00
2018-06-15T03:11:37.628Z,11.10
2018-06-15T03:14:06.748Z,11.10
2018-06-15T03:16:35.903Z,11.10
2018-06-15T03:19:05.279Z,11.10
2018-06-15T03:21:34.394Z,11.10
2018-06-15T03:24:03.495Z,11.20
2018-06-15T03:26:32.579Z,11.30
2018-06-15T03:29:01.674Z,11.30
2018-06-15T03:31:30.757Z,11.40
2018-06-15T03:33:59.876Z,11.30
2018-06-15T03:36:28.984Z,11.40
2018-06-15T03:38:58.247Z,11.50
2018-06-15T03:41:27.332Z,11.50
2018-06-15T03:43:56.447Z,11.60
2018-06-15T03:46:25.560Z,11.80
2018-06-15T03:48:54.702Z,11.80
2018-06-15T03:51:23.829Z,11.80
2018-06-15T03:53:52.925Z,11.80
2018-06-15T03:56:22.035Z,11.80
2018-06-15T03:58:51.306Z,11.90
2018-06-15T04:01:20.416Z,11.90
2018-06-15T04:03:49.487Z,11.80
2018-06-15T04:06:18.596Z,11.80
2018-06-15T04:08:47.687Z,11.90
2018-06-15T04:11:16.934Z,11.90
2018-06-15T04:13:46.091Z,11.90
2018-06-15T04:16:15.182Z,12.00
2018-06-15T04:18:44.275Z,12.10
2018-06-15T04:21:13.403Z,12.30
2018-06-15T04:23:42.615Z,12.30
2018-06-15T04:26:11.743Z,12.40
2018-06-15T04:28:40.890Z,12.50
2018-06-15T04:31:10.197Z,12.50
2018-06-15T04:33:39.300Z,12.60
2018-06-15T04:36:08.419Z,12.50
2018-06-15T04:38:37.630Z,12.60
2018-06-15T04:41:07.003Z,12.40
2018-06-15T04:43:36.143Z,12.60
2018-06-15T04:46:05.675Z,12.60
2018-06-15T04:48:34.835Z,12.70
2018-06-15T04:51:03.915Z,12.90
2018-06-15T04:53:33.028Z,12.90
2018-06-15T04:56:02.116Z,13.00
2018-06-15T04:58:31.226Z,13.00
2018-06-15T05:01:00.304Z,13.10
2018-06-15T05:03:29.407Z,13.10
2018-06-15T05:05:58.487Z,13.10
2018-06-15T05:10:59.836Z,13.30
2018-06-15T05:13:29.071Z,13.50
2018-06-15T05:15:58.147Z,13.60
2018-06-15T05:18:27.410Z,13.70
2018-06-15T05:20:56.508Z,13.80
2018-06-15T05:23:25.599Z,13.90
2018-06-15T05:25:54.727Z,13.90
2018-06-15T05:28:23.791Z,14.00
2018-06-15T05:30:52.955Z,14.20
2018-06-15T05:33:22.075Z,14.40
2018-06-15T05:35:51.190Z,14.50
2018-06-15T05:38:20.267Z,14.70
2018-06-15T05:40:49.368Z,14.80
2018-06-15T05:43:18.484Z,14.80
2018-06-15T05:45:47.571Z,14.90
2018-06-15T05:48:16.743Z,15.00
2018-06-15T05:50:45.951Z,15.20
2018-06-15T05:53:15.058Z,15.20
2018-06-15T05:55:44.144Z,15.30
2018-06-15T05:58:18.167Z,15.40
2018-06-15T06:00:47.250Z,15.50
2018-06-15T06:03:20.839Z,15.70
2018-06-15T06:05:49.956Z,15.80
2018-06-15T06:08:20.387Z,15.90
2018-06-15T06:10:50.102Z,16.00
2018-06-15T06:13:19.499Z,16.10
2018-06-15T06:15:48.635Z,16.20
2018-06-15T06:18:17.724Z,16.10
2018-06-15T06:20:46.851Z,16.10
2018-06-15T06:23:15.966Z,16.10
2018-06-15T06:25:45.073Z,16.30
2018-06-15T06:28:14.167Z,16.50
2018-06-15T06:30:43.301Z,16.60
2018-06-15T06:33:12.759Z,16.70
2018-06-15T06:35:42.216Z,16.60
2018-06-15T06:38:11.679Z,16.70
2018-06-15T06:40:40.767Z,16.50
2018-06-15T06:45:38.768Z,17.00
2018-06-15T06:48:08.031Z,17.20
2018-06-15T06:50:37.221Z,17.20
2018-06-15T06:53:06.340Z,17.40
2018-06-15T06:55:35.770Z,17.40
2018-06-15T06:58:05.359Z,17.60
2018-06-15T07:00:34.976Z,17.70
2018-06-15T07:03:04.187Z,17.70
2018-06-15T07:08:02.121Z,17.90
2018-06-15T07:10:31.355Z,18.00
2018-06-15T07:13:00.623Z,18.10
2018-06-15T07:15:29.871Z,18.20
2018-06-15T07:17:58.961Z,18.10
2018-06-15T07:20:28.063Z,18.20
2018-06-15T07:22:57.241Z,18.30
2018-06-15T07:25:26.339Z,18.60
2018-06-15T07:27:55.441Z,18.80
2018-06-15T07:30:24.571Z,19.00
2018-06-15T07:32:53.643Z,19.10
2018-06-15T07:35:22.746Z,19.40
2018-06-15T07:37:51.843Z,19.50
2018-06-15T07:40:21.048Z,19.50
2018-06-15T07:42:50.138Z,19.70
2018-06-15T07:45:19.227Z,19.80
2018-06-15T07:47:48.335Z,19.80
2018-06-15T07:50:17.423Z,20.10
2018-06-15T07:52:46.543Z,20.20
2018-06-15T07:55:15.627Z,20.30
2018-06-15T07:57:44.742Z,20.40
2018-06-15T08:00:13.831Z,20.20
2018-06-15T08:02:43.032Z,20.20
2018-06-15T08:05:12.121Z,20.00
2018-06-15T08:07:41.299Z,20.20
2018-06-15T08:12:39.228Z,20.30
2018-06-15T08:15:08.383Z,20.40
2018-06-15T08:17:37.515Z,20.40
2018-06-15T08:20:06.773Z,20.50
2018-06-15T08:22:35.884Z,20.40
2018-06-15T08:25:05.033Z,20.40
2018-06-15T08:27:34.539Z,20.50
2018-06-15T08:30:03.736Z,20.50
2018-06-15T08:32:32.843Z,20.40
2018-06-15T08:35:01.942Z,20.70
2018-06-15T08:37:31.038Z,20.90
2018-06-15T08:40:00.132Z,20.90
2018-06-15T08:42:29.295Z,21.00
2018-06-15T08:44:58.507Z,21.00
2018-06-15T08:47:27.619Z,21.20
2018-06-15T08:49:56.695Z,21.30
2018-06-15T08:52:25.816Z,21.30
2018-06-15T08:54:54.931Z,21.30
2018-06-15T08:57:24.040Z,21.30
2018-06-15T08:59:53.190Z,21.50
2018-06-15T09:02:22.331Z,21.40
2018-06-15T09:04:51.427Z,21.30
2018-06-15T09:09:49.267Z,21.20
2018-06-15T09:12:18.483Z,21.20
2018-06-15T09:14:47.590Z,21.10
2018-06-15T09:17:16.707Z,21.30
2018-06-15T09:19:45.803Z,21.40
2018-06-15T09:22:15.025Z,21.40
2018-06-15T09:24:44.094Z,21.50
2018-06-15T09:27:13.262Z,21.60
2018-06-15T09:29:42.354Z,21.70
2018-06-15T09:32:11.498Z,21.80
2018-06-15T09:34:40.626Z,22.00
2018-06-15T09:37:09.900Z,21.80
2018-06-15T09:39:39.043Z,22.00
2018-06-15T09:42:08.224Z,22.20
2018-06-15T09:44:37.539Z,22.40
2018-06-15T09:47:06.718Z,22.40
2018-06-15T09:49:36.131Z,22.50
2018-06-15T09:52:05.650Z,22.40
2018-06-15T09:54:34.815Z,22.40
2018-06-15T09:57:03.922Z,22.40
2018-06-15T09:59:33.031Z,22.40
2018-06-15T10:02:02.167Z,22.50
2018-06-15T10:04:31.260Z,22.60
2018-06-15T10:07:00.359Z,22.70
2018-06-15T10:09:29.451Z,23.00
2018-06-15T10:11:58.551Z,23.30
2018-06-15T10:14:27.650Z,23.20
2018-06-15T10:16:56.768Z,23.20
2018-06-15T10:19:25.875Z,23.30
2018-06-15T10:21:54.996Z,23.10
2018-06-15T10:24:24.116Z,23.10
2018-06-15T10:26:53.214Z,23.60
2018-06-15T10:29:22.323Z,23.70
2018-06-15T10:31:51.419Z,23.90
2018-06-15T10:34:20.603Z,24.00
2018-06-15T10:36:49.702Z,24.30
2018-06-15T10:39:18.873Z,24.20
2018-06-15T10:41:47.907Z,23.90
2018-06-15T10:44:17.011Z,23.80
2018-06-15T10:46:46.204Z,24.10
2018-06-15T10:49:15.627Z,24.20
2018-06-15T10:51:45.138Z,23.90
2018-06-15T10:54:14.379Z,23.70
2018-06-15T10:56:43.519Z,24.00
2018-06-15T10:59:12.736Z,24.10
2018-06-15T11:01:41.854Z,24.10
2018-06-15T11:04:10.974Z,24.20
2018-06-15T11:06:40.147Z,24.00
2018-06-15T11:09:09.422Z,23.70
2018-06-15T11:11:38.751Z,23.80
2018-06-15T11:14:08.177Z,23.60
2018-06-15T11:16:37.350Z,23.70
2018-06-15T11:19:06.791Z,23.80
2018-06-15T11:21:36.150Z,23.60
2018-06-15T11:24:05.345Z,23.60
2018-06-15T11:26:34.707Z,23.50
2018-06-15T11:29:04.247Z,23.90
2018-06-15T11:31:33.352Z,24.10
2018-06-15T11:34:02.447Z,23.90
2018-06-15T11:36:31.807Z,24.40
2018-06-15T11:39:00.925Z,24.60
2018-06-15T11:41:30.023Z,24.60
2018-06-15T11:43:59.119Z,24.40
2018-06-15T11:46:28.243Z,24.60
2018-06-15T11:48:57.385Z,24.80
2018-06-15T11:51:26.600Z,25.20
2018-06-15T11:53:55.715Z,25.30
2018-06-15T11:56:25.087Z,25.30
2018-06-15T11:58:54.221Z,25.20
2018-06-15T12:01:23.286Z,25.50
2018-06-15T12:03:52.451Z,25.70
2018-06-15T12:06:21.584Z,25.80
2018-06-15T12:08:50.703Z,26.00
2018-06-15T12:13:48.463Z,25.80
2018-06-15T12:16:17.580Z,25.90
2018-06-15T12:18:46.703Z,25.90
2018-06-15T12:21:15.819Z,25.70
2018-06-15T12:23:44.921Z,25.60
2018-06-15T12:26:14.019Z,25.30
2018-06-15T12:28:43.184Z,25.40
2018-06-15T12:31:12.303Z,25.00
2018-06-15T12:33:41.398Z,25.30
2018-06-15T12:36:10.601Z,25.60
2018-06-15T12:38:39.747Z,25.60
2018-06-15T12:41:09.050Z,25.60
2018-06-15T12:43:38.158Z,25.70
2018-06-15T12:46:07.584Z,26.20
2018-06-15T12:48:36.689Z,26.20
2018-06-15T12:51:05.799Z,26.60
2018-06-15T12:53:34.912Z,27.00
2018-06-15T12:56:04.191Z,27.30
2018-06-15T12:58:33.327Z,27.90
2018-06-15T13:01:02.412Z,28.30
2018-06-15T13:06:00.214Z,28.30
2018-06-15T13:08:29.298Z,28.60
2018-06-15T13:10:58.399Z,28.70
2018-06-15T13:13:27.488Z,28.60
2018-06-15T13:15:56.731Z,28.30
2018-06-15T13:18:25.829Z,27.30
2018-06-15T13:20:54.950Z,26.80
2018-06-15T13:23:24.037Z,26.30
2018-06-15T13:25:53.283Z,25.50
2018-06-15T13:30:51.039Z,25.10
2018-06-15T13:33:20.199Z,25.00
2018-06-15T13:35:49.315Z,25.30
2018-06-15T13:40:47.080Z,26.30
2018-06-15T13:43:16.198Z,27.40
2018-06-15T13:45:45.323Z,28.00
2018-06-15T13:48:14.427Z,28.30
2018-06-15T13:50:43.523Z,28.80
2018-06-15T13:53:12.807Z,29.40
2018-06-15T13:55:42.019Z,29.70
2018-06-15T13:58:11.131Z,29.40
2018-06-15T14:00:40.243Z,28.00
2018-06-15T14:03:09.331Z,27.30
2018-06-15T14:05:39.230Z,26.40
2018-06-15T14:08:08.656Z,25.70
2018-06-15T14:10:37.801Z,25.10
2018-06-15T14:13:06.956Z,25.00
2018-06-15T14:15:36.168Z,25.10
2018-06-15T14:18:05.471Z,24.60
2018-06-15T14:20:34.571Z,25.00
2018-06-15T14:23:03.745Z,24.80
2018-06-15T14:25:32.823Z,24.90
2018-06-15T14:28:01.952Z,25.20
2018-06-15T14:30:31.093Z,25.70
2018-06-15T14:33:00.192Z,25.90
2018-06-15T14:35:29.275Z,26.20
2018-06-15T14:37:58.453Z,27.30
2018-06-15T14:40:27.544Z,28.00
2018-06-15T14:42:56.663Z,28.30
2018-06-15T14:45:25.734Z,28.50
2018-06-15T14:47:54.835Z,28.00
2018-06-15T14:50:23.927Z,28.00
2018-06-15T14:52:53.210Z,27.30
2018-06-15T14:55:22.297Z,27.00
2018-06-15T14:57:51.366Z,27.40
2018-06-15T15:00:20.471Z,27.50
2018-06-15T15:02:49.550Z,27.90
2018-06-15T15:05:18.788Z,28.20
2018-06-15T15:07:47.872Z,27.80
2018-06-15T15:10:16.974Z,28.00
2018-06-15T15:12:46.075Z,28.30
2018-06-15T15:15:15.187Z,28.60
2018-06-15T15:17:44.287Z,28.70
2018-06-15T15:20:13.396Z,28.90
2018-06-15T15:22:42.498Z,28.50
2018-06-15T15:25:11.690Z,27.80
2018-06-15T15:27:40.816Z,27.40
2018-06-15T15:30:10.015Z,26.80
2018-06-15T15:32:39.191Z,26.90
2018-06-15T15:35:08.305Z,27.30
2018-06-15T15:37:37.612Z,27.40
2018-06-15T15:40:06.903Z,28.20
2018-06-15T15:42:36.300Z,28.90
2018-06-15T15:45:05.686Z,28.80
2018-06-15T15:47:34.844Z,29.00
2018-06-15T15:50:04.196Z,29.20
2018-06-15T15:52:33.288Z,30.10
2018-06-15T15:55:02.435Z,30.30
2018-06-15T15:57:31.518Z,30.50
2018-06-15T16:00:00.639Z,30.70
2018-06-15T16:02:29.747Z,30.30
2018-06-15T16:04:58.851Z,29.80
2018-06-15T16:07:27.965Z,28.60
2018-06-15T16:09:57.147Z,27.70
2018-06-15T16:12:26.331Z,27.10
2018-06-15T16:14:55.503Z,27.00
2018-06-15T16:17:24.657Z,27.40
2018-06-15T16:19:53.734Z,27.50
2018-06-15T16:22:22.831Z,27.30
2018-06-15T16:24:52.111Z,27.00
2018-06-15T16:27:21.236Z,26.50
2018-06-15T16:29:50.382Z,26.00
2018-06-15T16:32:19.815Z,25.70
2018-06-15T16:34:48.927Z,25.20
2018-06-15T16:39:46.759Z,25.20
2018-06-15T16:42:15.881Z,24.90
2018-06-15T16:44:45.044Z,24.70
2018-06-15T16:47:14.122Z,24.70
2018-06-15T16:49:43.318Z,24.50
2018-06-15T16:52:12.422Z,24.30
2018-06-15T16:54:41.743Z,23.80
2018-06-15T16:57:11.035Z,23.80
2018-06-15T16:59:40.165Z,23.90
2018-06-15T17:02:09.469Z,23.70
2018-06-15T17:04:38.677Z,23.60
2018-06-15T17:07:07.799Z,23.70
2018-06-15T17:09:36.920Z,23.70
2018-06-15T17:12:06.248Z,23.70
2018-06-15T17:14:35.819Z,23.80
2018-06-15T17:17:05.019Z,24.00
2018-06-15T17:19:34.137Z,24.70
2018-06-15T17:22:03.241Z,25.60
2018-06-15T17:24:32.355Z,26.20
2018-06-15T17:27:01.655Z,27.30
2018-06-15T17:29:30.851Z,27.90
2018-06-15T17:31:59.947Z,28.60
2018-06-15T17:34:29.042Z,29.30
2018-06-15T17:36:58.139Z,28.70
2018-06-15T17:39:27.255Z,28.80
2018-06-15T17:41:56.407Z,29.00
2018-06-15T17:44:25.511Z,29.10
2018-06-15T17:46:54.771Z,28.70
2018-06-15T17:49:24.537Z,28.40
2018-06-15T17:51:54.052Z,28.60
2018-06-15T17:54:23.309Z,27.80
2018-06-15T17:56:52.411Z,26.90
2018-06-15T17:59:21.683Z,26.30
2018-06-15T18:01:51.743Z,25.60
2018-06-15T18:04:20.841Z,25.20
2018-06-15T18:06:49.952Z,24.70
2018-06-15T18:09:19.171Z,24.40
2018-06-15T18:11:48.270Z,24.20
2018-06-15T18:14:17.352Z,24.10
2018-06-15T18:16:46.540Z,23.80
2018-06-15T18:19:15.697Z,23.80
2018-06-15T18:21:44.863Z,23.80
2018-06-15T18:24:14.118Z,23.60
2018-06-15T18:26:43.240Z,23.50
2018-06-15T18:29:12.575Z,23.30
2018-06-15T18:31:41.916Z,23.30
2018-06-15T18:34:11.063Z,23.20
2018-06-15T18:36:40.159Z,23.10
2018-06-15T18:39:12.391Z,23.10
2018-06-15T18:41:41.563Z,22.90
2018-06-15T18:46:39.778Z,22.80
2018-06-15T18:49:09.133Z,22.70
2018-06-15T18:51:40.392Z,22.60
2018-06-15T18:54:09.755Z,22.40
2018-06-15T18:56:39.094Z,22.20
2018-06-15T18:59:08.202Z,22.10
2018-06-15T19:01:37.351Z,22.10
2018-06-15T19:04:06.543Z,22.00
2018-06-15T19:06:35.723Z,21.90
2018-06-15T19:09:07.751Z,21.90
2018-06-15T19:11:37.019Z,21.60
2018-06-15T19:14:06.320Z,21.50
2018-06-15T19:16:35.561Z,21.50
2018-06-15T19:19:04.703Z,21.40
2018-06-15T19:21:33.792Z,21.30
2018-06-15T19:24:03.143Z,21.10
2018-06-15T19:26:32.268Z,21.00
2018-06-15T19:29:01.528Z,20.90
2018-06-15T19:31:31.083Z,20.70
2018-06-15T19:34:00.199Z,20.60
2018-06-15T19:36:29.317Z,20.50
2018-06-15T19:38:58.423Z,20.60
2018-06-15T19:41:27.555Z,20.60
2018-06-15T19:43:56.797Z,20.40
2018-06-15T19:46:25.903Z,20.30
2018-06-15T19:48:55.175Z,20.30
2018-06-15T19:51:24.287Z,20.30
2018-06-15T19:53:53.400Z,20.10
2018-06-15T19:56:22.569Z,20.10
2018-06-15T19:58:51.725Z,20.00
2018-06-15T20:01:20.981Z,20.00
2018-06-15T20:03:50.113Z,19.90
2018-06-15T20:06:19.263Z,19.80
2018-06-15T20:08:48.552Z,19.70
2018-06-15T20:13:46.327Z,19.80
2018-06-15T20:16:15.479Z,19.80
2018-06-15T20:18:44.614Z,19.80
2018-06-15T20:21:13.723Z,19.70
2018-06-15T20:23:42.830Z,19.60
2018-06-15T20:26:12.055Z,19.60
2018-06-15T20:28:41.195Z,19.60
2018-06-15T20:31:10.568Z,19.60
2018-06-15T20:33:39.739Z,19.60
2018-06-15T20:36:09.026Z,19.50
2018-06-15T20:38:38.085Z,19.40
2018-06-15T20:41:07.305Z,19.40
2018-06-15T20:43:36.471Z,19.30
2018-06-15T20:46:05.939Z,19.30
2018-06-15T20:48:35.035Z,19.20
2018-06-15T20:51:04.171Z,19.30
2018-06-15T20:53:33.402Z,19.20
2018-06-15T20:56:02.652Z,19.10
2018-06-15T20:58:31.797Z,19.00
2018-06-15T21:01:00.908Z,18.90
2018-06-15T21:03:30.111Z,18.90
2018-06-15T21:05:59.786Z,18.90
2018-06-15T21:08:29.108Z,18.90
2018-06-15T21:10:58.497Z,18.90
2018-06-15T21:13:27.619Z,18.90
2018-06-15T21:15:56.909Z,18.80
2018-06-15T21:18:26.029Z,18.80
2018-06-15T21:20:55.162Z,18.80
2018-06-15T21:23:24.360Z,18.70
2018-06-15T21:25:53.582Z,18.60
2018-06-15T21:28:22.674Z,18.40
2018-06-15T21:30:51.811Z,18.50
2018-06-15T21:33:20.902Z,18.40
2018-06-15T21:38:19.774Z,18.30
2018-06-15T21:40:48.902Z,18.30
2018-06-15T21:43:18.276Z,18.30
2018-06-15T21:45:47.375Z,18.30
2018-06-15T21:48:16.729Z,18.20
2018-06-15T21:50:46.006Z,18.10
2018-06-15T21:53:15.135Z,18.10
2018-06-15T21:55:44.350Z,18.10
2018-06-15T21:58:13.796Z,18.10
2018-06-15T22:00:42.913Z,17.90
2018-06-15T22:03:12.120Z,17.90
2018-06-15T22:05:41.239Z,17.80
2018-06-15T22:08:10.461Z,17.80
2018-06-15T22:10:39.983Z,17.80
2018-06-15T22:13:09.219Z,17.70
2018-06-15T22:15:38.343Z,17.70
2018-06-15T22:18:07.670Z,17.60
2018-06-15T22:20:36.811Z,17.50
2018-06-15T22:23:06.177Z,17.40
2018-06-15T22:25:35.423Z,15.90
2018-06-15T22:28:04.603Z,17.30
2018-06-15T22:30:33.732Z,17.30
2018-06-15T22:33:02.834Z,17.20
2018-06-15T22:35:32.039Z,17.20
2018-06-15T22:38:01.551Z,17.20
2018-06-15T22:40:30.754Z,17.10
2018-06-15T22:42:59.899Z,17.00
2018-06-15T22:45:29.042Z,17.00
2018-06-15T22:50:26.843Z,17.00
2018-06-15T22:52:55.934Z,16.90
2018-06-15T22:55:25.029Z,16.90
2018-06-15T22:57:54.154Z,16.80
2018-06-15T23:00:24.991Z,16.70
2018-06-15T23:02:54.100Z,16.60
2018-06-15T23:05:23.191Z,16.60
2018-06-15T23:07:52.637Z,16.50
2018-06-15T23:10:21.751Z,16.60
2018-06-15T23:12:50.923Z,16.50
2018-06-15T23:15:20.139Z,16.50
2018-06-15T23:17:49.457Z,16.40
2018-06-15T23:20:18.579Z,16.40
2018-06-15T23:22:47.728Z,16.40
2018-06-15T23:25:16.847Z,16.20
2018-06-15T23:27:45.991Z,16.10
2018-06-15T23:30:15.103Z,16.10
2018-06-15T23:32:44.193Z,16.00
2018-06-15T23:35:13.308Z,15.90
2018-06-15T23:37:42.451Z,15.80
2018-06-15T23:40:11.551Z,15.90
2018-06-15T23:42:40.683Z,15.90
2018-06-15T23:45:09.975Z,15.80
2018-06-15T23:47:39.173Z,15.80
2018-06-15T23:50:08.507Z,15.80
2018-06-15T23:52:37.767Z,15.90
2018-06-15T23:55:06.906Z,15.90
2018-06-15T23:57:36.049Z,16.00
